Brickeys, AR (72320)

5:29 AM CDT on April 27, 2015 (GMT -0500)
RAWS | | Change Station
CLOSE
Current Station
Personal Weather Station
Location: La Grange, AR
Elevation: 252 ft
Nearby Weather Stations
Active Advisory: Flood Advisory

Elev 252 ft 34.76 °N, 90.72 °W | Updated 50 minutes ago

Clear
Clear
53 °F
Feels Like 53 °F
N
1
Wind Variable Wind from NW
Gusts 4.0 mph

Today
High -- | Low -- °F
--% Chance of Precip.
Yesterday
High -- | Low -- °F
Precip. -- in
6:16 AM 7:43 PM
Waxing Gibbous, 64% visible
Pressure 29.97 in
Visibility 10.0 miles
Clouds Clear
Dew Point 50 °F
Humidity 90%
Rainfall in
Snow Depth Not available.
UV 0 out of 12
Pollen 9.70 out of 12
Air Quality Not available.
Flu Activity Sporadic
METAR KUTA 271015Z AUTO 34005KT 10SM CLR 11/09 A2997 RMK AO2 LTG DSNT SW

More Conditions Fewer Conditions

Pressure 29.97 in
Visibility 10.0 miles
Clouds Clear
Dew Point 50 °F
Humidity 90%
Rainfall in
Snow Depth Not available.
UV 0 out of 12
Pollen 9.70 out of 12
Air Quality Not available.
Flu Activity Sporadic
METAR KUTA 271015Z AUTO 34005KT 10SM CLR 11/09 A2997 RMK AO2 LTG DSNT SW

More Conditions Fewer Conditions

10-Day Weather Forecast

Almanac

Astronomy

Apr. 27, 2015 Rise Set
Actual Time
Civil Twilight
Nautical Twilight
Astronomical Twilight
Moon
Length of Visible Light
Length of Day
Tomorrow will be .
, % of the Moon is Illuminated

Today's Extremes

State Highs State Lows

Community

WunderPhotos

Upload Photos

1,817,278 photos uploaded!

WunderBlogs® & News

Nearby

Air Quality

  Air Quality AQ Index Pollutant
Not available.

Snow Depth

Station Depth Elevation

Earthquake Activity

City Distance Mag. Time & Date
Minimum magnitude displayed is 2.5.

Coastal Water Temperatures

Place Temperature

Stations

Nearby Weather Stations

Station Location Temp. Windchill Dew Point Humidity Wind Precip. Elev Updated Type
                   
Flood Advisory
Statement as of 9:22 PM CDT on April 26, 2015

The Flood Advisory continues for
the Mississippi River at Tunica Riverpark
* until Monday April 27.
* At 08 PM Sunday the stage was 40.5 feet.
* Flood stage is 41.0 feet.
* Forecast... the river will rise to near 40.6 feet Monday April 27.
* At 41.0 feet... casinos are open and unaffected. Tunica Cutoff Lake
is flooding Camp lots and Riverside Drive in Lakeview Camp. In
Arkansas, Road to Farmstead inside the levee near the southeast
corner of Lee County is flooded. Water is against the toe of the
Arkansas levee in extreme sothern Crittenden County in places and
most all the way around Midway Lake.


Lat... Lon 3491 9062 3491 9022 3480 9034 3450 9051
      3455 9059 3476 9074